sensor_id;sensor_type;location;lat;lon;timestamp;pressure;altitude;pressure_sealevel;temperature;humidity
61436;BME280;47304;47.456;19.160;2024-03-02T00:01:47;99650.05;;;9.30;74.84
61436;BME280;47304;47.456;19.160;2024-03-02T00:04:15;99645.86;;;9.29;74.84
61436;BME280;47304;47.456;19.160;2024-03-02T00:06:44;99640.27;;;9.30;74.76
61436;BME280;47304;47.456;19.160;2024-03-02T00:09:12;99634.32;;;9.29;74.74
61436;BME280;47304;47.456;19.160;2024-03-02T00:11:43;99624.89;;;9.28;74.79
61436;BME280;47304;47.456;19.160;2024-03-02T00:14:11;99624.55;;;9.26;74.86
61436;BME280;47304;47.456;19.160;2024-03-02T00:16:40;99618.98;;;9.24;75.05
61436;BME280;47304;47.456;19.160;2024-03-02T00:19:10;99621.60;;;9.22;75.12
61436;BME280;47304;47.456;19.160;2024-03-02T00:21:39;99620.92;;;9.20;75.11
61436;BME280;47304;47.456;19.160;2024-03-02T00:24:20;99622.52;;;9.17;75.32
61436;BME280;47304;47.456;19.160;2024-03-02T00:26:49;99629.36;;;9.15;75.38
61436;BME280;47304;47.456;19.160;2024-03-02T00:29:18;99630.92;;;9.13;75.45
61436;BME280;47304;47.456;19.160;2024-03-02T00:31:46;99630.25;;;9.11;75.45
61436;BME280;47304;47.456;19.160;2024-03-02T00:34:15;99627.63;;;9.09;75.49
61436;BME280;47304;47.456;19.160;2024-03-02T00:36:43;99630.62;;;9.08;75.51
61436;BME280;47304;47.456;19.160;2024-03-02T00:39:13;99632.90;;;9.06;75.49
61436;BME280;47304;47.456;19.160;2024-03-02T00:41:43;99637.61;;;9.06;75.46
61436;BME280;47304;47.456;19.160;2024-03-02T00:44:13;99641.29;;;9.05;75.26
61436;BME280;47304;47.456;19.160;2024-03-02T00:46:43;99638.84;;;9.05;75.14
61436;BME280;47304;47.456;19.160;2024-03-02T00:49:20;99635.70;;;9.06;75.11
61436;BME280;47304;47.456;19.160;2024-03-02T00:51:49;99634.63;;;9.07;75.03
61436;BME280;47304;47.456;19.160;2024-03-02T00:54:21;99636.89;;;9.08;74.96
61436;BME280;47304;47.456;19.160;2024-03-02T00:56:49;99639.16;;;9.09;74.73
61436;BME280;47304;47.456;19.160;2024-03-02T00:59:18;99635.68;;;9.09;74.65
61436;BME280;47304;47.456;19.160;2024-03-02T01:01:47;99630.61;;;9.08;74.56
61436;BME280;47304;47.456;19.160;2024-03-02T01:04:16;99630.63;;;9.06;74.34
61436;BME280;47304;47.456;19.160;2024-03-02T01:06:44;99628.36;;;9.04;74.26
61436;BME280;47304;47.456;19.160;2024-03-02T01:09:12;99628.36;;;9.04;74.26
61436;BME280;47304;47.456;19.160;2024-03-02T01:11:40;99625.73;;;9.03;74.50
61436;BME280;47304;47.456;19.160;2024-03-02T01:14:09;99625.41;;;9.01;74.62
61436;BME280;47304;47.456;19.160;2024-03-02T01:16:37;99618.27;;;9.00;74.74
61436;BME280;47304;47.456;19.160;2024-03-02T01:19:05;99613.91;;;8.95;74.86
61436;BME280;47304;47.456;19.160;2024-03-02T01:21:33;99611.32;;;8.92;74.77
61436;BME280;47304;47.456;19.160;2024-03-02T01:24:02;99608.52;;;8.89;74.97
61436;BME280;47304;47.456;19.160;2024-03-02T01:26:30;99603.13;;;8.87;74.88
61436;BME280;47304;47.456;19.160;2024-03-02T01:28:58;99599.30;;;8.85;74.99
61436;BME280;47304;47.456;19.160;2024-03-02T01:31:27;99600.70;;;8.84;75.20
61436;BME280;47304;47.456;19.160;2024-03-02T01:33:55;99602.62;;;8.84;75.25
61436;BME280;47304;47.456;19.160;2024-03-02T01:36:23;99604.04;;;8.82;75.34
61436;BME280;47304;47.456;19.160;2024-03-02T01:38:51;99605.08;;;8.80;75.38
61436;BME280;47304;47.456;19.160;2024-03-02T01:41:20;99601.25;;;8.80;75.50
61436;BME280;47304;47.456;19.160;2024-03-02T01:43:48;99593.23;;;8.78;75.47
61436;BME280;47304;47.456;19.160;2024-03-02T01:46:16;99591.15;;;8.75;75.59
61436;BME280;47304;47.456;19.160;2024-03-02T01:48:45;99584.35;;;8.73;75.65
61436;BME280;47304;47.456;19.160;2024-03-02T01:51:13;99593.09;;;8.72;75.77
61436;BME280;47304;47.456;19.160;2024-03-02T01:53:41;99587.33;;;8.72;75.75
61436;BME280;47304;47.456;19.160;2024-03-02T01:56:09;99589.95;;;8.73;75.89
61436;BME280;47304;47.456;19.160;2024-03-02T01:58:38;99591.49;;;8.74;75.95
61436;BME280;47304;47.456;19.160;2024-03-02T02:01:07;99596.55;;;8.74;75.93
61436;BME280;47304;47.456;19.160;2024-03-02T02:03:35;99594.47;;;8.74;75.84
61436;BME280;47304;47.456;19.160;2024-03-02T02:06:04;99603.73;;;8.74;75.86
61436;BME280;47304;47.456;19.160;2024-03-02T02:08:32;99605.64;;;8.75;75.98
61436;BME280;47304;47.456;19.160;2024-03-02T02:11:01;99604.42;;;8.76;76.04
61436;BME280;47304;47.456;19.160;2024-03-02T02:13:29;99609.30;;;8.77;75.86
61436;BME280;47304;47.456;19.160;2024-03-02T02:16:06;99613.14;;;8.77;75.70
61436;BME280;47304;47.456;19.160;2024-03-02T02:18:34;99616.10;;;8.78;75.49
61436;BME280;47304;47.456;19.160;2024-03-02T02:21:03;99614.53;;;8.79;75.21
61436;BME280;47304;47.456;19.160;2024-03-02T02:23:31;99617.66;;;8.82;75.16
61436;BME280;47304;47.456;19.160;2024-03-02T02:25:59;99620.61;;;8.86;75.09
61436;BME280;47304;47.456;19.160;2024-03-02T02:28:28;99622.52;;;8.88;74.90
61436;BME280;47304;47.456;19.160;2024-03-02T02:30:56;99620.41;;;8.91;74.57
61436;BME280;47304;47.456;19.160;2024-03-02T02:33:24;99623.54;;;8.94;74.54
61436;BME280;47304;47.456;19.160;2024-03-02T02:35:52;99621.95;;;8.95;74.44
61436;BME280;47304;47.456;19.160;2024-03-02T02:38:20;99618.44;;;8.98;74.49
61436;BME280;47304;47.456;19.160;2024-03-02T02:40:49;99612.33;;;8.99;74.49
61436;BME280;47304;47.456;19.160;2024-03-02T02:43:17;99608.48;;;9.00;74.47
61436;BME280;47304;47.456;19.160;2024-03-02T02:45:45;99608.81;;;9.01;74.34
61436;BME280;47304;47.456;19.160;2024-03-02T02:48:13;99603.23;;;9.02;74.11
61436;BME280;47304;47.456;19.160;2024-03-02T02:50:42;99601.11;;;9.03;74.03
61436;BME280;47304;47.456;19.160;2024-03-02T02:53:10;99605.98;;;9.06;74.01
61436;BME280;47304;47.456;19.160;2024-03-02T02:55:40;99608.77;;;9.07;73.85
61436;BME280;47304;47.456;19.160;2024-03-02T02:58:08;99611.73;;;9.09;73.89
61436;BME280;47304;47.456;19.160;2024-03-02T03:00:37;99615.73;;;9.11;73.99
61436;BME280;47304;47.456;19.160;2024-03-02T03:03:05;99620.61;;;9.12;73.86
61436;BME280;47304;47.456;19.160;2024-03-02T03:05:34;99622.71;;;9.15;73.77
61436;BME280;47304;47.456;19.160;2024-03-02T03:08:02;99620.78;;;9.16;73.52
61436;BME280;47304;47.456;19.160;2024-03-02T03:10:30;99622.68;;;9.18;73.53
61436;BME280;47304;47.456;19.160;2024-03-02T03:12:58;99615.52;;;9.18;73.31
61436;BME280;47304;47.456;19.160;2024-03-02T03:15:27;99616.91;;;9.19;73.22
61436;BME280;47304;47.456;19.160;2024-03-02T03:17:55;99618.99;;;9.20;73.05
61436;BME280;47304;47.456;19.160;2024-03-02T03:20:23;99624.06;;;9.21;72.91
61436;BME280;47304;47.456;19.160;2024-03-02T03:22:51;99623.17;;;9.22;72.81
61436;BME280;47304;47.456;19.160;2024-03-02T03:25:20;99624.73;;;9.25;72.87
61436;BME280;47304;47.456;19.160;2024-03-02T03:27:48;99625.27;;;9.25;72.89
61436;BME280;47304;47.456;19.160;2024-03-02T03:30:16;99621.95;;;9.25;72.91
61436;BME280;47304;47.456;19.160;2024-03-02T03:32:45;99625.63;;;9.25;73.03
61436;BME280;47304;47.456;19.160;2024-03-02T03:35:13;99624.73;;;9.26;73.04
61436;BME280;47304;47.456;19.160;2024-03-02T03:37:42;99624.91;;;9.26;72.83
61436;BME280;47304;47.456;19.160;2024-03-02T03:40:12;99626.99;;;9.27;72.82
61436;BME280;47304;47.456;19.160;2024-03-02T03:42:41;99625.25;;;9.26;72.87
61436;BME280;47304;47.456;19.160;2024-03-02T03:45:10;99628.41;;;9.25;72.94
61436;BME280;47304;47.456;19.160;2024-03-02T03:47:38;99630.16;;;9.22;73.27
61436;BME280;47304;47.456;19.160;2024-03-02T03:50:08;99639.27;;;9.20;73.54
61436;BME280;47304;47.456;19.160;2024-03-02T03:52:36;99644.54;;;9.15;73.72
61436;BME280;47304;47.456;19.160;2024-03-02T03:55:06;99648.77;;;9.12;74.08
61436;BME280;47304;47.456;19.160;2024-03-02T03:57:34;99653.49;;;9.09;74.31
61436;BME280;47304;47.456;19.160;2024-03-02T04:00:02;99657.36;;;9.03;74.53
61436;BME280;47304;47.456;19.160;2024-03-02T04:02:30;99657.55;;;9.00;74.80
61436;BME280;47304;47.456;19.160;2024-03-02T04:04:59;99658.81;;;8.96;75.09
61436;BME280;47304;47.456;19.160;2024-03-02T04:07:27;99656.21;;;8.91;75.38
61436;BME280;47304;47.456;19.160;2024-03-02T04:09:55;99659.02;;;8.88;75.59
61436;BME280;47304;47.456;19.160;2024-03-02T04:12:23;99658.70;;;8.84;75.86
61436;BME280;47304;47.456;19.160;2024-03-02T04:14:52;99658.88;;;8.80;76.20
61436;BME280;47304;47.456;19.160;2024-03-02T04:17:20;99660.46;;;8.78;76.32
61436;BME280;47304;47.456;19.160;2024-03-02T04:19:48;99662.75;;;8.75;76.57
61436;BME280;47304;47.456;19.160;2024-03-02T04:22:16;99659.96;;;8.73;76.79
61436;BME280;47304;47.456;19.160;2024-03-02T04:24:44;99664.67;;;8.71;76.91
61436;BME280;47304;47.456;19.160;2024-03-02T04:27:13;99664.35;;;8.68;77.10
61436;BME280;47304;47.456;19.160;2024-03-02T04:29:41;99661.39;;;8.65;77.36
61436;BME280;47304;47.456;19.160;2024-03-02T04:32:09;99663.15;;;8.63;77.49
61436;BME280;47304;47.456;19.160;2024-03-02T04:34:38;99663.33;;;8.62;77.73
61436;BME280;47304;47.456;19.160;2024-03-02T04:37:06;99661.42;;;8.59;77.86
61436;BME280;47304;47.456;19.160;2024-03-02T04:39:35;99663.69;;;8.57;78.07
61436;BME280;47304;47.456;19.160;2024-03-02T04:42:04;99656.01;;;8.55;78.18
61436;BME280;47304;47.456;19.160;2024-03-02T04:44:32;99657.58;;;8.55;78.51
61436;BME280;47304;47.456;19.160;2024-03-02T04:47:00;99660.56;;;8.54;78.75
61436;BME280;47304;47.456;19.160;2024-03-02T04:49:28;99654.80;;;8.52;78.84
61436;BME280;47304;47.456;19.160;2024-03-02T04:51:57;99658.83;;;8.51;78.99
61436;BME280;47304;47.456;19.160;2024-03-02T04:54:26;99658.13;;;8.52;79.30
61436;BME280;47304;47.456;19.160;2024-03-02T04:56:54;99661.09;;;8.51;79.28
61436;BME280;47304;47.456;19.160;2024-03-02T04:59:22;99659.52;;;8.51;79.43
61436;BME280;47304;47.456;19.160;2024-03-02T05:01:50;99662.33;;;8.49;79.44
61436;BME280;47304;47.456;19.160;2024-03-02T05:04:19;99661.28;;;8.49;79.66
61436;BME280;47304;47.456;19.160;2024-03-02T05:06:47;99664.24;;;8.49;79.89
61436;BME280;47304;47.456;19.160;2024-03-02T05:09:15;99660.21;;;8.48;79.94
61436;BME280;47304;47.456;19.160;2024-03-02T05:11:43;99663.02;;;8.48;80.13
61436;BME280;47304;47.456;19.160;2024-03-02T05:14:11;99665.98;;;8.49;80.22
61436;BME280;47304;47.456;19.160;2024-03-02T05:16:39;99667.73;;;8.49;80.37
61436;BME280;47304;47.456;19.160;2024-03-02T05:19:08;99665.80;;;8.48;80.39
61436;BME280;47304;47.456;19.160;2024-03-02T05:21:36;99670.18;;;8.48;80.43
61436;BME280;47304;47.456;19.160;2024-03-02T05:24:05;99666.15;;;8.47;80.53
61436;BME280;47304;47.456;19.160;2024-03-02T05:26:33;99663.70;;;8.43;80.62
61436;BME280;47304;47.456;19.160;2024-03-02T05:29:01;99660.75;;;8.40;80.87
61436;BME280;47304;47.456;19.160;2024-03-02T05:31:30;99660.23;;;8.37;81.06
61436;BME280;47304;47.456;19.160;2024-03-02T05:33:58;99657.44;;;8.34;81.45
61436;BME280;47304;47.456;19.160;2024-03-02T05:36:26;99663.91;;;8.33;81.63
61436;BME280;47304;47.456;19.160;2024-03-02T05:38:54;99674.03;;;8.33;81.75
61436;BME280;47304;47.456;19.160;2024-03-02T05:41:23;99679.96;;;8.34;81.89
61436;BME280;47304;47.456;19.160;2024-03-02T05:43:51;99678.91;;;8.35;81.93
61436;BME280;47304;47.456;19.160;2024-03-02T05:46:19;99680.66;;;8.36;82.02
61436;BME280;47304;47.456;19.160;2024-03-02T05:48:47;99691.46;;;8.37;81.79
61436;BME280;47304;47.456;19.160;2024-03-02T05:51:15;99692.17;;;8.36;81.78
61436;BME280;47304;47.456;19.160;2024-03-02T05:53:44;99696.19;;;8.35;81.69
61436;BME280;47304;47.456;19.160;2024-03-02T05:56:12;99698.63;;;8.35;81.74
61436;BME280;47304;47.456;19.160;2024-03-02T05:58:41;99699.85;;;8.34;81.81
61436;BME280;47304;47.456;19.160;2024-03-02T06:01:10;99703.70;;;8.33;81.87
61436;BME280;47304;47.456;19.160;2024-03-02T06:03:38;99704.92;;;8.32;81.96
61436;BME280;47304;47.456;19.160;2024-03-02T06:06:06;99703.69;;;8.32;81.99
61436;BME280;47304;47.456;19.160;2024-03-02T06:08:34;99705.63;;;8.31;82.03
61436;BME280;47304;47.456;19.160;2024-03-02T06:11:03;99707.02;;;8.31;82.16
61436;BME280;47304;47.456;19.160;2024-03-02T06:13:31;99708.06;;;8.31;82.08
61436;BME280;47304;47.456;19.160;2024-03-02T06:15:59;99709.80;;;8.32;82.15
61436;BME280;47304;47.456;19.160;2024-03-02T06:18:27;99709.47;;;8.31;82.18
61436;BME280;47304;47.456;19.160;2024-03-02T06:20:55;99711.20;;;8.32;82.21
61436;BME280;47304;47.456;19.160;2024-03-02T06:23:24;99706.31;;;8.31;82.11
61436;BME280;47304;47.456;19.160;2024-03-02T06:25:52;99709.64;;;8.31;82.26
61436;BME280;47304;47.456;19.160;2024-03-02T06:28:20;99712.77;;;8.32;82.34
61436;BME280;47304;47.456;19.160;2024-03-02T06:30:48;99709.27;;;8.33;82.47
61436;BME280;47304;47.456;19.160;2024-03-02T06:33:17;99710.15;;;8.34;82.42
61436;BME280;47304;47.456;19.160;2024-03-02T06:35:45;99711.03;;;8.34;82.39
61436;BME280;47304;47.456;19.160;2024-03-02T06:38:13;99710.14;;;8.36;82.60
61436;BME280;47304;47.456;19.160;2024-03-02T06:40:41;99713.64;;;8.39;82.56
61436;BME280;47304;47.456;19.160;2024-03-02T06:43:10;99712.75;;;8.41;82.67
61436;BME280;47304;47.456;19.160;2024-03-02T06:45:38;99713.27;;;8.45;82.70
61436;BME280;47304;47.456;19.160;2024-03-02T06:48:08;99714.68;;;8.49;82.68
61436;BME280;47304;47.456;19.160;2024-03-02T06:50:36;99714.86;;;8.53;82.61
61436;BME280;47304;47.456;19.160;2024-03-02T06:53:05;99713.62;;;8.55;82.55
61436;BME280;47304;47.456;19.160;2024-03-02T06:55:33;99716.41;;;8.59;82.50
61436;BME280;47304;47.456;19.160;2024-03-02T06:58:01;99714.30;;;8.61;82.58
61436;BME280;47304;47.456;19.160;2024-03-02T07:00:29;99715.71;;;8.64;82.52
61436;BME280;47304;47.456;19.160;2024-03-02T07:02:58;99715.52;;;8.66;82.43
61436;BME280;47304;47.456;19.160;2024-03-02T07:05:26;99717.43;;;8.70;82.54
61436;BME280;47304;47.456;19.160;2024-03-02T07:07:54;99721.95;;;8.74;82.48
61436;BME280;47304;47.456;19.160;2024-03-02T07:10:23;99718.11;;;8.77;82.46
61436;BME280;47304;47.456;19.160;2024-03-02T07:12:52;99716.70;;;8.79;82.38
61436;BME280;47304;47.456;19.160;2024-03-02T07:15:20;99720.89;;;8.81;82.29
61436;BME280;47304;47.456;19.160;2024-03-02T07:17:49;99722.80;;;8.82;82.29
61436;BME280;47304;47.456;19.160;2024-03-02T07:20:17;99722.79;;;8.83;82.31
61436;BME280;47304;47.456;19.160;2024-03-02T07:22:46;99725.77;;;8.83;82.25
61436;BME280;47304;47.456;19.160;2024-03-02T07:25:14;99728.22;;;8.82;82.36
61436;BME280;47304;47.456;19.160;2024-03-02T07:27:43;99726.46;;;8.81;82.42
61436;BME280;47304;47.456;19.160;2024-03-02T07:30:15;99728.39;;;8.81;82.42
61436;BME280;47304;47.456;19.160;2024-03-02T07:32:43;99724.55;;;8.81;82.57
61436;BME280;47304;47.456;19.160;2024-03-02T07:35:12;99729.43;;;8.83;82.50
61436;BME280;47304;47.456;19.160;2024-03-02T07:37:42;99735.17;;;8.85;82.54
61436;BME280;47304;47.456;19.160;2024-03-02T07:40:12;99735.54;;;8.86;82.72
61436;BME280;47304;47.456;19.160;2024-03-02T07:42:40;99740.59;;;8.88;82.65
61436;BME280;47304;47.456;19.160;2024-03-02T07:45:09;99741.11;;;8.88;82.50
61436;BME280;47304;47.456;19.160;2024-03-02T07:47:37;99741.45;;;8.88;82.77
61436;BME280;47304;47.456;19.160;2024-03-02T07:50:07;99741.98;;;8.90;82.87
61436;BME280;47304;47.456;19.160;2024-03-02T07:52:35;99742.84;;;8.94;82.89
61436;BME280;47304;47.456;19.160;2024-03-02T07:55:04;99745.80;;;8.99;82.98
61436;BME280;47304;47.456;19.160;2024-03-02T07:57:33;99751.01;;;9.02;82.92
61436;BME280;47304;47.456;19.160;2024-03-02T08:00:01;99752.05;;;9.06;82.94
61436;BME280;47304;47.456;19.160;2024-03-02T08:02:30;99751.16;;;9.11;83.20
61436;BME280;47304;47.456;19.160;2024-03-02T08:04:58;99754.45;;;9.18;83.32
61436;BME280;47304;47.456;19.160;2024-03-02T08:07:27;99758.10;;;9.22;83.02
61436;BME280;47304;47.456;19.160;2024-03-02T08:09:55;99759.33;;;9.21;82.71
61436;BME280;47304;47.456;19.160;2024-03-02T08:12:23;99760.22;;;9.20;82.63
61436;BME280;47304;47.456;19.160;2024-03-02T08:14:52;99761.60;;;9.19;82.64
61436;BME280;47304;47.456;19.160;2024-03-02T08:17:21;99758.11;;;9.19;82.69
61436;BME280;47304;47.456;19.160;2024-03-02T08:19:49;99759.50;;;9.21;82.71
61436;BME280;47304;47.456;19.160;2024-03-02T08:22:17;99761.09;;;9.19;82.51
61436;BME280;47304;47.456;19.160;2024-03-02T08:24:46;99758.98;;;9.18;82.63
61436;BME280;47304;47.456;19.160;2024-03-02T08:27:14;99759.16;;;9.18;82.71
61436;BME280;47304;47.456;19.160;2024-03-02T08:29:43;99755.67;;;9.18;82.83
61436;BME280;47304;47.456;19.160;2024-03-02T08:32:11;99758.98;;;9.20;83.04
61436;BME280;47304;47.456;19.160;2024-03-02T08:34:39;99757.40;;;9.23;83.17
61436;BME280;47304;47.456;19.160;2024-03-02T08:37:08;99760.72;;;9.24;83.06
61436;BME280;47304;47.456;19.160;2024-03-02T08:39:36;99763.52;;;9.26;83.15
61436;BME280;47304;47.456;19.160;2024-03-02T08:42:05;99761.39;;;9.30;83.21
61436;BME280;47304;47.456;19.160;2024-03-02T08:44:33;99762.06;;;9.33;83.25
61436;BME280;47304;47.456;19.160;2024-03-02T08:47:02;99761.89;;;9.35;83.23
61436;BME280;47304;47.456;19.160;2024-03-02T08:49:30;99763.10;;;9.36;83.09
61436;BME280;47304;47.456;19.160;2024-03-02T08:51:59;99763.61;;;9.38;83.44
61436;BME280;47304;47.456;19.160;2024-03-02T08:54:28;99762.75;;;9.36;83.21
61436;BME280;47304;47.456;19.160;2024-03-02T08:56:56;99759.42;;;9.36;83.26
61436;BME280;47304;47.456;19.160;2024-03-02T08:59:25;99759.77;;;9.37;83.17
61436;BME280;47304;47.456;19.160;2024-03-02T09:01:53;99759.60;;;9.37;83.27
61436;BME280;47304;47.456;19.160;2024-03-02T09:04:21;99755.75;;;9.40;83.44
61436;BME280;47304;47.456;19.160;2024-03-02T09:06:50;99759.40;;;9.41;83.43
61436;BME280;47304;47.456;19.160;2024-03-02T09:09:18;99762.37;;;9.42;83.37
61436;BME280;47304;47.456;19.160;2024-03-02T09:11:47;99764.29;;;9.43;83.40
61436;BME280;47304;47.456;19.160;2024-03-02T09:14:15;99762.02;;;9.41;83.21
61436;BME280;47304;47.456;19.160;2024-03-02T09:16:43;99765.38;;;9.40;83.23
61436;BME280;47304;47.456;19.160;2024-03-02T09:19:12;99765.89;;;9.39;83.27
61436;BME280;47304;47.456;19.160;2024-03-02T09:21:41;99767.13;;;9.35;83.09
61436;BME280;47304;47.456;19.160;2024-03-02T09:24:09;99767.84;;;9.34;83.40
61436;BME280;47304;47.456;19.160;2024-03-02T09:26:38;99767.48;;;9.35;83.77
61436;BME280;47304;47.456;19.160;2024-03-02T09:29:07;99769.58;;;9.35;83.60
61436;BME280;47304;47.456;19.160;2024-03-02T09:31:40;99768.34;;;9.36;83.58
61436;BME280;47304;47.456;19.160;2024-03-02T09:34:08;99766.77;;;9.39;83.78
61436;BME280;47304;47.456;19.160;2024-03-02T09:36:37;99770.08;;;9.40;83.63
61436;BME280;47304;47.456;19.160;2024-03-02T09:39:05;99770.09;;;9.40;83.53
61436;BME280;47304;47.456;19.160;2024-03-02T09:41:35;99769.91;;;9.39;83.50
61436;BME280;47304;47.456;19.160;2024-03-02T09:44:04;99773.91;;;9.41;83.54
61436;BME280;47304;47.456;19.160;2024-03-02T09:46:33;99771.83;;;9.40;83.53
61436;BME280;47304;47.456;19.160;2024-03-02T09:49:01;99769.88;;;9.43;83.80
61436;BME280;47304;47.456;19.160;2024-03-02T09:51:29;99768.14;;;9.41;83.52
61436;BME280;47304;47.456;19.160;2024-03-02T09:53:58;99770.06;;;9.43;83.85
61436;BME280;47304;47.456;19.160;2024-03-02T09:56:28;99770.04;;;9.45;83.78
61436;BME280;47304;47.456;19.160;2024-03-02T09:58:57;99769.16;;;9.45;83.67
61436;BME280;47304;47.456;19.160;2024-03-02T10:01:25;99764.79;;;9.46;83.80
61436;BME280;47304;47.456;19.160;2024-03-02T10:03:54;99766.73;;;9.44;83.49
61436;BME280;47304;47.456;19.160;2024-03-02T10:06:26;99773.02;;;9.43;83.64
61436;BME280;47304;47.456;19.160;2024-03-02T10:08:54;99772.86;;;9.43;83.85
61436;BME280;47304;47.456;19.160;2024-03-02T10:11:29;99772.84;;;9.45;83.99
61436;BME280;47304;47.456;19.160;2024-03-02T10:14:08;99771.27;;;9.47;84.00
61436;BME280;47304;47.456;19.160;2024-03-02T10:16:37;99767.39;;;9.50;83.94
61436;BME280;47304;47.456;19.160;2024-03-02T10:19:24;99761.10;;;9.54;83.91
61436;BME280;47304;47.456;19.160;2024-03-02T10:21:53;99764.02;;;9.59;83.88
61436;BME280;47304;47.456;19.160;2024-03-02T10:24:22;99763.66;;;9.60;83.40
61436;BME280;47304;47.456;19.160;2024-03-02T10:26:51;99761.92;;;9.59;83.22
61436;BME280;47304;47.456;19.160;2024-03-02T10:29:19;99762.97;;;9.59;83.28
61436;BME280;47304;47.456;19.160;2024-03-02T10:31:48;99759.45;;;9.64;83.46
61436;BME280;47304;47.456;19.160;2024-03-02T10:34:16;99758.02;;;9.69;83.70
61436;BME280;47304;47.456;19.160;2024-03-02T10:36:45;99754.83;;;9.75;83.74
61436;BME280;47304;47.456;19.160;2024-03-02T10:39:15;99757.44;;;9.78;83.62
61436;BME280;47304;47.456;19.160;2024-03-02T10:41:43;99752.68;;;9.81;83.61
61436;BME280;47304;47.456;19.160;2024-03-02T10:44:11;99751.61;;;9.84;83.43
61436;BME280;47304;47.456;19.160;2024-03-02T10:46:40;99752.47;;;9.86;83.33
61436;BME280;47304;47.456;19.160;2024-03-02T10:49:08;99752.63;;;9.89;83.34
61436;BME280;47304;47.456;19.160;2024-03-02T10:51:36;99750.31;;;9.94;83.28
61436;BME280;47304;47.456;19.160;2024-03-02T10:54:05;99748.73;;;9.97;83.03
61436;BME280;47304;47.456;19.160;2024-03-02T10:56:36;99753.61;;;9.96;82.51
61436;BME280;47304;47.456;19.160;2024-03-02T10:59:21;99750.65;;;9.94;82.47
61436;BME280;47304;47.456;19.160;2024-03-02T11:01:50;99748.91;;;9.95;82.53
61436;BME280;47304;47.456;19.160;2024-03-02T11:04:19;99746.63;;;9.97;82.72
61436;BME280;47304;47.456;19.160;2024-03-02T11:06:50;99745.20;;;9.99;82.57
61436;BME280;47304;47.456;19.160;2024-03-02T11:09:21;99747.84;;;9.97;82.13
61436;BME280;47304;47.456;19.160;2024-03-02T11:11:56;99750.27;;;10.00;82.03
61436;BME280;47304;47.456;19.160;2024-03-02T11:14:31;99743.02;;;10.07;82.04
61436;BME280;47304;47.456;19.160;2024-03-02T11:17:01;99739.80;;;10.16;82.21
61436;BME280;47304;47.456;19.160;2024-03-02T11:19:32;99738.88;;;10.22;82.10
61436;BME280;47304;47.456;19.160;2024-03-02T11:22:03;99735.53;;;10.24;81.88
61436;BME280;47304;47.456;19.160;2024-03-02T11:24:49;99732.73;;;10.23;81.93
61436;BME280;47304;47.456;19.160;2024-03-02T11:30:51;99732.98;;;10.14;81.41
61436;BME280;47304;47.456;19.160;2024-03-02T11:33:26;99730.94;;;10.09;81.63
61436;BME280;47304;47.456;19.160;2024-03-02T11:35:54;99732.21;;;10.04;81.51
61436;BME280;47304;47.456;19.160;2024-03-02T11:38:23;99731.17;;;10.02;81.79
61436;BME280;47304;47.456;19.160;2024-03-02T11:40:55;99728.39;;;10.00;81.68
61436;BME280;47304;47.456;19.160;2024-03-02T11:43:23;99727.71;;;9.98;81.50
61436;BME280;47304;47.456;19.160;2024-03-02T11:45:59;99728.97;;;9.95;81.59
61436;BME280;47304;47.456;19.160;2024-03-02T11:48:28;99728.63;;;9.92;81.48
61436;BME280;47304;47.456;19.160;2024-03-02T11:50:59;99728.48;;;9.90;81.61
61436;BME280;47304;47.456;19.160;2024-03-02T11:53:29;99724.46;;;9.90;81.88
61436;BME280;47304;47.456;19.160;2024-03-02T11:55:59;99729.71;;;9.89;81.87
61436;BME280;47304;47.456;19.160;2024-03-02T11:58:28;99727.60;;;9.88;81.84
61436;BME280;47304;47.456;19.160;2024-03-02T12:00:56;99724.98;;;9.88;82.00
61436;BME280;47304;47.456;19.160;2024-03-02T12:03:25;99729.00;;;9.90;81.94
61436;BME280;47304;47.456;19.160;2024-03-02T12:05:54;99725.45;;;9.95;82.11
61436;BME280;47304;47.456;19.160;2024-03-02T12:08:23;99724.67;;;10.05;82.15
61436;BME280;47304;47.456;19.160;2024-03-02T12:10:59;99722.51;;;10.13;82.01
61436;BME280;47304;47.456;19.160;2024-03-02T12:13:28;99718.77;;;10.21;81.98
61436;BME280;47304;47.456;19.160;2024-03-02T12:15:57;99723.08;;;10.27;82.08
61436;BME280;47304;47.456;19.160;2024-03-02T12:18:25;99720.41;;;10.32;81.76
61436;BME280;47304;47.456;19.160;2024-03-02T12:20:54;99724.95;;;10.34;81.51
61436;BME280;47304;47.456;19.160;2024-03-02T12:23:22;99725.31;;;10.33;81.38
61436;BME280;47304;47.456;19.160;2024-03-02T12:25:51;99724.78;;;10.32;81.18
61436;BME280;47304;47.456;19.160;2024-03-02T12:28:20;99724.83;;;10.27;81.00
61436;BME280;47304;47.456;19.160;2024-03-02T12:30:50;99728.21;;;10.21;80.92
61436;BME280;47304;47.456;19.160;2024-03-02T12:33:18;99725.63;;;10.16;81.07
61436;BME280;47304;47.456;19.160;2024-03-02T12:35:48;99724.79;;;10.12;81.21
61436;BME280;47304;47.456;19.160;2024-03-02T12:38:16;99727.13;;;10.06;81.08
61436;BME280;47304;47.456;19.160;2024-03-02T12:40:44;99731.20;;;10.00;81.11
61436;BME280;47304;47.456;19.160;2024-03-02T12:43:15;99728.09;;;9.94;81.10
61436;BME280;47304;47.456;19.160;2024-03-02T12:45:43;99730.02;;;9.93;81.30
61436;BME280;47304;47.456;19.160;2024-03-02T12:48:12;99728.31;;;9.89;81.43
61436;BME280;47304;47.456;19.160;2024-03-02T12:50:41;99728.15;;;9.86;81.56
61436;BME280;47304;47.456;19.160;2024-03-02T12:53:15;99731.16;;;9.82;81.48
61436;BME280;47304;47.456;19.160;2024-03-02T12:55:44;99733.84;;;9.74;81.59
61436;BME280;47304;47.456;19.160;2024-03-02T12:58:19;99733.54;;;9.67;81.73
61436;BME280;47304;47.456;19.160;2024-03-02T13:00:48;99737.05;;;9.63;82.13
61436;BME280;47304;47.456;19.160;2024-03-02T13:03:19;99741.29;;;9.60;81.88
61436;BME280;47304;47.456;19.160;2024-03-02T13:05:50;99741.30;;;9.56;81.80
61436;BME280;47304;47.456;19.160;2024-03-02T13:08:19;99738.73;;;9.49;81.54
61436;BME280;47304;47.456;19.160;2024-03-02T13:10:48;99741.91;;;9.43;81.60
61436;BME280;47304;47.456;19.160;2024-03-02T13:13:16;99739.32;;;9.36;81.69